Shirley, Massachusetts
Current Conditions -  °F | °C
As of 2:52 PM on Saturday 25 Oct 2014 (Local Time) from KFIT Reporting Station
Clear Clear  
Wind Chill: 66°   Ceiling: Unl
Heat Index: 66°   Visibility: 10mi
Dew Point: 38°   Wind: 10mph
Humidity: 36%   Direction: 310°NW
Pressure: 29.63"   Gusts: NA
Location:  42.54°N, 71.65°W
Report Text: KFIT 251852Z AUTO 31009KT 10SM CLR 19/03 A2963 RMK AO2 SLP033 T01890033
Loading
Personal Weather Stations






























Interactive Weather Map
Tropical Storm Tracking
New forecast layout! Learn more

10-Day Weather Forecast

Advertisements
Track Severe Weather on mobile